createdAt,value
2023-01-08T00:00:57.881Z,99747.28
2023-01-08T00:05:02.775Z,99754.22
2023-01-08T00:09:05.768Z,99758.50
2023-01-08T00:13:09.076Z,99752.50
2023-01-08T00:17:12.321Z,99744.66
2023-01-08T00:21:16.928Z,99734.19
2023-01-08T00:25:20.695Z,99735.97
2023-01-08T00:29:23.751Z,99750.03
2023-01-08T00:33:26.760Z,99751.88
2023-01-08T00:37:31.351Z,99738.66
2023-01-08T00:41:34.803Z,99737.72
2023-01-08T00:45:37.927Z,99735.09
2023-01-08T00:49:40.934Z,99723.78
2023-01-08T00:53:45.335Z,99706.31
2023-01-08T00:57:48.329Z,99700.19
2023-01-08T01:01:52.907Z,99719.34
2023-01-08T01:06:01.855Z,99731.56
2023-01-08T01:10:07.406Z,99728.00
2023-01-08T01:14:11.220Z,99728.00
2023-01-08T01:18:14.307Z,99728.94
2023-01-08T01:22:17.442Z,99721.06
2023-01-08T01:26:23.075Z,99732.28
2023-01-08T01:30:26.328Z,99741.72
2023-01-08T01:34:29.314Z,99732.16
2023-01-08T01:38:32.783Z,99718.28
2023-01-08T01:42:44.130Z,99720.91
2023-01-08T01:46:49.195Z,99721.75
2023-01-08T01:50:55.324Z,99718.09
2023-01-08T01:55:01.287Z,99717.94
2023-01-08T01:59:06.695Z,99717.03
2023-01-08T02:03:11.780Z,99718.78
2023-01-08T02:07:21.596Z,99715.28
2023-01-08T02:11:31.303Z,99718.78
2023-01-08T02:15:43.926Z,99712.69
2023-01-08T02:19:50.987Z,99708.41
2023-01-08T02:24:02.224Z,99702.25
2023-01-08T02:28:11.795Z,99707.47
2023-01-08T02:32:15.441Z,99697.00
2023-01-08T02:36:46.389Z,99697.81
2023-01-08T02:40:58.245Z,99690.81
2023-01-08T02:45:12.986Z,99690.72
2023-01-08T02:49:18.049Z,99688.94
2023-01-08T02:53:24.226Z,99689.88
2023-01-08T02:57:28.643Z,99685.50
2023-01-08T03:01:36.108Z,99690.72
2023-01-08T03:05:42.372Z,99682.94
2023-01-08T03:09:49.005Z,99677.75
2023-01-08T03:13:58.411Z,99671.63
2023-01-08T03:18:08.776Z,99666.41
2023-01-08T03:22:15.543Z,99668.06
2023-01-08T03:26:23.286Z,99657.59
2023-01-08T03:30:26.829Z,99658.50
2023-01-08T03:34:35.498Z,99652.34
2023-01-08T03:38:43.482Z,99648.97
2023-01-08T03:42:46.530Z,99644.63
2023-01-08T03:46:54.580Z,99642.84
2023-01-08T03:50:58.950Z,99638.56
2023-01-08T03:55:02.250Z,99631.66
2023-01-08T03:59:05.308Z,99610.78
2023-01-08T04:03:08.627Z,99610.81
2023-01-08T04:07:13.474Z,99606.53
2023-01-08T04:11:16.554Z,99613.50
2023-01-08T04:15:19.785Z,99612.59
2023-01-08T04:19:23.011Z,99607.34
2023-01-08T04:23:27.786Z,99599.50
2023-01-08T04:27:30.809Z,99598.63
2023-01-08T04:31:34.183Z,99596.84
2023-01-08T04:35:37.523Z,99604.66
2023-01-08T04:39:42.084Z,99611.72
2023-01-08T04:43:45.118Z,99615.28
2023-01-08T04:47:48.376Z,99622.34
2023-01-08T04:51:51.397Z,99623.13
2023-01-08T04:55:56.312Z,99608.19
2023-01-08T04:59:59.504Z,99601.16
2023-01-08T05:04:04.333Z,99608.13
2023-01-08T05:08:07.353Z,99609.81
2023-01-08T05:12:11.963Z,99606.22
2023-01-08T05:16:15.224Z,99601.88
2023-01-08T05:20:19.120Z,99594.88
2023-01-08T05:24:22.523Z,99591.41
2023-01-08T05:28:27.436Z,99582.72
2023-01-08T05:32:30.462Z,99589.63
2023-01-08T05:36:33.687Z,99587.84
2023-01-08T05:40:36.761Z,99595.56
2023-01-08T05:44:41.168Z,99592.00
2023-01-08T05:48:44.151Z,99578.03
2023-01-08T05:52:47.207Z,99576.41
2023-01-08T05:56:50.237Z,99580.75
2023-01-08T06:00:54.737Z,99575.53
2023-01-08T06:04:57.740Z,99566.88
2023-01-08T06:09:00.761Z,99578.22
2023-01-08T06:13:08.336Z,99557.28
2023-01-08T06:17:12.871Z,99555.56
2023-01-08T06:21:16.165Z,99557.31
2023-01-08T06:25:19.166Z,99544.28
2023-01-08T06:29:22.405Z,99535.69
2023-01-08T06:33:26.856Z,99526.13
2023-01-08T06:37:29.890Z,99527.06
2023-01-08T06:41:32.947Z,99514.00
2023-01-08T06:45:36.061Z,99517.56
2023-01-08T06:49:40.522Z,99507.06
2023-01-08T06:53:43.626Z,99515.78
2023-01-08T06:57:46.613Z,99516.66
2023-01-08T07:01:50.101Z,99513.16
2023-01-08T07:05:54.537Z,99514.09
2023-01-08T07:09:57.664Z,99521.09
2023-01-08T07:14:00.713Z,99528.94
2023-01-08T07:18:05.978Z,99530.63
2023-01-08T07:22:10.504Z,99515.88
2023-01-08T07:26:13.686Z,99521.91
2023-01-08T07:30:28.949Z,99525.34
2023-01-08T07:34:34.741Z,99521.03
2023-01-08T07:38:39.145Z,99518.31
2023-01-08T07:42:42.328Z,99506.09
2023-01-08T07:46:46.121Z,99505.28
2023-01-08T07:50:49.302Z,99513.09
2023-01-08T07:54:53.665Z,99512.16
2023-01-08T07:58:56.958Z,99514.72
2023-01-08T08:03:04.667Z,99514.63
2023-01-08T08:07:08.016Z,99511.06
2023-01-08T08:11:12.426Z,99506.69
2023-01-08T08:15:15.716Z,99496.22
2023-01-08T08:19:18.738Z,99484.84
2023-01-08T08:23:21.877Z,99465.69
2023-01-08T08:27:26.264Z,99463.16
2023-01-08T08:31:29.337Z,99459.66
2023-01-08T08:35:33.228Z,99462.31
2023-01-08T08:39:36.316Z,99456.25
2023-01-08T08:43:40.727Z,99458.06
2023-01-08T08:47:43.758Z,99454.63
2023-01-08T08:51:46.795Z,99446.84
2023-01-08T08:55:49.867Z,99435.59
2023-01-08T08:59:54.538Z,99441.75
2023-01-08T09:03:57.540Z,99439.19
2023-01-08T09:08:00.580Z,99442.72
2023-01-08T09:12:04.165Z,99436.53
2023-01-08T09:16:09.226Z,99437.34
2023-01-08T09:20:12.586Z,99440.78
2023-01-08T09:24:15.607Z,99431.13
2023-01-08T09:28:18.869Z,99420.72
2023-01-08T09:32:23.235Z,99419.03
2023-01-08T09:36:26.502Z,99415.63
2023-01-08T09:40:35.134Z,99407.88
2023-01-08T09:44:41.383Z,99397.41
2023-01-08T09:48:47.080Z,99393.97
2023-01-08T09:52:50.146Z,99388.81
2023-01-08T09:56:54.790Z,99379.31
2023-01-08T10:00:58.348Z,99374.94
2023-01-08T10:05:05.166Z,99360.16
2023-01-08T10:09:13.655Z,99345.38
2023-01-08T10:13:17.551Z,99325.31
2023-01-08T10:17:28.040Z,99305.31
2023-01-08T10:21:34.094Z,99293.19
2023-01-08T10:25:49.806Z,99274.75
2023-01-08T10:29:53.615Z,99272.13
2023-01-08T10:33:56.746Z,99271.22
2023-01-08T10:38:01.342Z,99246.78
2023-01-08T10:42:07.719Z,99238.09
2023-01-08T10:46:21.324Z,99243.28
2023-01-08T10:50:26.715Z,99278.13
2023-01-08T10:54:35.913Z,99285.19
2023-01-08T10:58:42.907Z,99283.47
2023-01-08T11:02:50.554Z,99287.88
2023-01-08T11:06:59.627Z,99296.66
2023-01-08T11:11:04.201Z,99294.88
2023-01-08T11:15:25.386Z,99290.56
2023-01-08T11:19:31.164Z,99287.16
2023-01-08T11:23:34.230Z,99276.75
2023-01-08T11:27:43.425Z,99272.41
2023-01-08T11:31:54.214Z,99264.56
2023-01-08T11:36:04.175Z,99262.88
2023-01-08T11:40:15.635Z,99255.91
2023-01-08T11:44:32.904Z,99240.22
2023-01-08T11:48:52.230Z,99241.94
2023-01-08T11:53:08.879Z,99252.44
2023-01-08T11:57:22.833Z,99254.25
2023-01-08T12:01:44.508Z,99258.66
2023-01-08T12:05:51.104Z,99262.19
2023-01-08T12:10:01.179Z,99264.84
2023-01-08T12:14:31.004Z,99263.09
2023-01-08T12:18:50.601Z,99274.44
2023-01-08T12:23:01.352Z,99259.59
2023-01-08T12:27:13.576Z,99256.97
2023-01-08T12:31:39.851Z,99259.63
2023-01-08T12:35:49.998Z,99254.38
2023-01-08T12:40:01.129Z,99250.88
2023-01-08T12:44:05.806Z,99263.09
2023-01-08T12:48:12.626Z,99277.06
2023-01-08T12:52:24.896Z,99270.97
2023-01-08T12:56:36.942Z,99252.63
2023-01-08T13:00:44.138Z,99252.59
2023-01-08T13:04:48.748Z,99263.06
2023-01-08T13:08:56.559Z,99247.31
2023-01-08T13:13:02.002Z,99233.41
2023-01-08T13:17:07.107Z,99232.56
2023-01-08T13:21:13.016Z,99227.31
2023-01-08T13:25:34.044Z,99226.44
2023-01-08T13:29:39.903Z,99220.28
2023-01-08T13:33:44.134Z,99218.50
2023-01-08T13:37:48.987Z,99225.47
2023-01-08T13:42:02.875Z,99222.81
2023-01-08T13:46:27.077Z,99223.63
2023-01-08T13:50:32.566Z,99230.56
2023-01-08T13:54:38.906Z,99227.94
2023-01-08T13:58:52.331Z,99230.56
2023-01-08T14:02:55.531Z,99226.22
2023-01-08T14:07:12.087Z,99222.69
2023-01-08T14:11:15.230Z,99208.72
2023-01-08T14:15:25.149Z,99227.00
2023-01-08T14:19:29.115Z,99220.91
2023-01-08T14:23:43.090Z,99219.13
2023-01-08T14:27:57.308Z,99241.81
2023-01-08T14:32:02.522Z,99230.41
2023-01-08T14:36:08.505Z,99230.41
2023-01-08T14:40:16.089Z,99231.25
2023-01-08T14:44:25.996Z,99231.25
2023-01-08T14:48:40.623Z,99226.88
2023-01-08T14:52:43.664Z,99222.50
2023-01-08T14:56:50.215Z,99210.28
2023-01-08T15:00:55.622Z,99212.91
2023-01-08T15:05:05.794Z,99222.50
2023-01-08T15:09:21.912Z,99218.16
2023-01-08T15:13:30.815Z,99217.28
2023-01-08T15:17:33.856Z,99212.00
2023-01-08T15:21:38.725Z,99212.00
2023-01-08T15:25:45.837Z,99212.00
2023-01-08T15:29:50.289Z,99202.44
2023-01-08T15:33:53.233Z,99205.00
2023-01-08T15:37:57.486Z,99206.78
2023-01-08T15:42:21.529Z,99219.78
2023-01-08T15:46:24.383Z,99211.03
2023-01-08T15:50:28.936Z,99210.09
2023-01-08T15:54:33.312Z,99214.38
2023-01-08T15:58:36.217Z,99213.44
2023-01-08T16:02:43.221Z,99211.59
2023-01-08T16:06:48.893Z,99215.06
2023-01-08T16:10:54.310Z,99215.06
2023-01-08T16:14:57.214Z,99205.44
2023-01-08T16:19:00.659Z,99199.34
2023-01-08T16:23:03.628Z,99198.50
2023-01-08T16:27:08.711Z,99211.59
2023-01-08T16:31:12.178Z,99199.41
2023-01-08T16:35:15.386Z,99203.84
2023-01-08T16:39:19.358Z,99215.19
2023-01-08T16:43:23.652Z,99209.16
2023-01-08T16:47:26.667Z,99203.06
2023-01-08T16:51:29.547Z,99203.97
2023-01-08T16:55:33.136Z,99195.22
2023-01-08T16:59:37.443Z,99196.16
2023-01-08T17:03:40.383Z,99206.69
2023-01-08T17:07:43.350Z,99199.75
2023-01-08T17:11:47.734Z,99193.69
2023-01-08T17:15:53.188Z,99181.47
2023-01-08T17:19:56.170Z,99173.63
2023-01-08T17:23:59.049Z,99194.59
2023-01-08T17:28:01.966Z,99190.28
2023-01-08T17:32:06.725Z,99178.97
2023-01-08T17:36:13.730Z,99184.22
2023-01-08T17:40:16.757Z,99176.41
2023-01-08T17:44:19.793Z,99172.97
2023-01-08T17:48:24.039Z,99176.50
2023-01-08T17:52:27.171Z,99194.81
2023-01-08T17:56:30.099Z,99207.97
2023-01-08T18:00:33.395Z,99204.47
2023-01-08T18:04:39.052Z,99199.25
2023-01-08T18:08:42.069Z,99202.75
2023-01-08T18:12:44.965Z,99207.94
2023-01-08T18:16:49.549Z,99197.47
2023-01-08T18:20:55.280Z,99187.84
2023-01-08T18:24:58.206Z,99181.75
2023-01-08T18:29:01.362Z,99180.88
2023-01-08T18:33:04.221Z,99179.13
2023-01-08T18:37:08.562Z,99182.59
2023-01-08T18:41:33.955Z,99173.88
2023-01-08T18:45:38.674Z,99165.19
2023-01-08T18:49:41.694Z,99176.50
2023-01-08T18:53:46.006Z,99173.84
2023-01-08T18:57:51.174Z,99167.69
2023-01-08T19:01:54.181Z,99176.34
2023-01-08T19:05:57.141Z,99165.00
2023-01-08T19:10:02.323Z,99167.56
2023-01-08T19:14:05.265Z,99177.94
2023-01-08T19:18:08.920Z,99154.38
2023-01-08T19:22:12.120Z,99159.59
2023-01-08T19:26:16.773Z,99142.13
2023-01-08T19:30:19.996Z,99145.56
2023-01-08T19:34:22.941Z,99131.59
2023-01-08T19:38:26.019Z,99127.25
2023-01-08T19:42:47.648Z,99122.03
2023-01-08T19:46:50.717Z,99121.09
2023-01-08T19:50:54.026Z,99114.06
2023-01-08T19:54:58.374Z,99126.22
2023-01-08T19:59:02.657Z,99119.25
2023-01-08T20:03:06.387Z,99118.38
2023-01-08T20:07:09.399Z,99106.97
2023-01-08T20:11:14.219Z,99102.44
2023-01-08T20:15:19.292Z,99098.84
2023-01-08T20:19:22.219Z,99088.31
2023-01-08T20:23:25.709Z,99090.88
2023-01-08T20:27:28.811Z,99101.25
2023-01-08T20:31:34.588Z,99102.16
2023-01-08T20:35:37.723Z,99089.06
2023-01-08T20:39:41.996Z,99090.72
2023-01-08T20:43:44.887Z,99094.94
2023-01-08T20:47:49.143Z,99086.81
2023-01-08T20:51:58.530Z,99079.66
2023-01-08T20:56:05.730Z,99080.41
2023-01-08T21:00:10.129Z,99056.84
2023-01-08T21:04:14.463Z,99046.38
2023-01-08T21:08:17.392Z,99040.31
2023-01-08T21:12:20.296Z,99020.31
2023-01-08T21:16:25.105Z,99011.66
2023-01-08T21:20:29.392Z,98992.44
2023-01-08T21:24:32.318Z,98977.63
2023-01-08T21:28:35.560Z,98983.66
2023-01-08T21:32:38.466Z,98971.47
2023-01-08T21:36:42.789Z,98970.56
2023-01-08T21:40:45.786Z,98948.81
2023-01-08T21:45:06.181Z,98949.66
2023-01-08T21:49:09.136Z,98947.91
2023-01-08T21:53:31.081Z,98945.31
2023-01-08T21:57:39.358Z,98937.50
2023-01-08T22:01:42.520Z,98934.84
2023-01-08T22:05:45.808Z,98927.84
2023-01-08T22:09:50.073Z,98920.88
2023-01-08T22:13:52.938Z,98906.13
2023-01-08T22:17:55.906Z,98895.66
2023-01-08T22:21:58.817Z,98893.03
2023-01-08T22:26:05.903Z,98872.97
2023-01-08T22:30:10.248Z,98884.13
2023-01-08T22:34:17.089Z,98887.56
2023-01-08T22:38:20.030Z,98872.78
2023-01-08T22:42:25.876Z,98858.03
2023-01-08T22:46:28.908Z,98849.34
2023-01-08T22:50:31.872Z,98846.66
2023-01-08T22:54:34.789Z,98822.38
2023-01-08T22:58:40.351Z,98830.16
2023-01-08T23:02:43.369Z,98816.28
2023-01-08T23:06:46.304Z,98817.97
2023-01-08T23:10:49.668Z,98814.44
2023-01-08T23:14:54.237Z,98802.19
2023-01-08T23:18:57.949Z,98806.53
2023-01-08T23:23:00.861Z,98796.97
2023-01-08T23:27:03.908Z,98797.78
2023-01-08T23:31:09.731Z,98796.03
2023-01-08T23:35:12.644Z,98796.03
2023-01-08T23:39:15.627Z,98783.84
2023-01-08T23:43:18.537Z,98756.94
2023-01-08T23:47:22.827Z,98766.47
2023-01-08T23:51:25.913Z,98751.78
2023-01-08T23:55:28.897Z,98736.16
2023-01-08T23:59:31.831Z,98728.34
